Time;durP1;ratioP1;P1;durP2;ratioP2;P2;SDS_P1;SDS_P2;PMS_P1;PMS_P2;Temp;Humidity;BMP_temperature;BMP_pressure;BME280_temperature;BME280_humidity;BME280_pressure;Samples;Min_cycle;Max_cycle;Signal;HPM_P1;HPM_P2
2022/10/30 00:00:31;;;;;;;;;;;;;;;;;;5071376;28;19956;-63
2022/10/30 00:02:56;;;;;;;;;;;;;;;;;;5070914;28;19912;-63
2022/10/30 00:05:21;;;;;;;;;;;;;;;;;;5070829;28;19963;-63
2022/10/30 00:07:46;;;;;;;;;;;;;;;;;;5077481;28;19912;-63
2022/10/30 00:10:11;;;;;;;;;;;;;;;;;;5070024;28;20380;-63
2022/10/30 00:12:36;;;;;;;;;;;;;;;;;;5070367;28;19919;-63
2022/10/30 00:15:02;;;;;;;;;;;;;;;;;;5085872;28;19916;-63
2022/10/30 00:17:27;;;;;;;;;;;;;;;;;;5077578;28;19912;-63
2022/10/30 00:19:52;;;;;;;;;;;;;;;;;;5059358;28;19923;-63
2022/10/30 00:22:17;;;;;;;;;;;;;;;;;;5067976;28;20003;-62
2022/10/30 00:24:42;;;;;;;;;;;;;;;;;;5071838;28;19919;-62
2022/10/30 00:27:07;;;;;;;;;;;;;;;;;;5067579;28;20380;-61
2022/10/30 00:29:32;;;;;;;;;;;;;;;;;;5070867;28;19959;-62
2022/10/30 00:31:57;;;;;;;;;;;;;;;;;;5070919;28;19916;-62
2022/10/30 00:34:23;;;;;;;;;;;;;;;;;;5072110;28;20284;-62
2022/10/30 00:36:48;;;;;;;;;;;;;;;;;;5069929;28;20361;-62
2022/10/30 00:39:13;;;;;;;;;;;;;;;;;;5067385;28;19940;-62
2022/10/30 00:41:40;;;;;;;;;;;;;;;;;;5073218;28;19912;-62
2022/10/30 00:44:05;;;;;;;;;;;;;;;;;;5071355;28;19955;-64
2022/10/30 00:46:30;;;;;;;;;;;;;;;;;;5070410;28;20009;-62
2022/10/30 00:48:55;;;;;;;;;;;;;;;;;;5053282;28;19920;-62
2022/10/30 00:51:20;;;;;;;;;;;;;;;;;;5061730;28;20349;-62
2022/10/30 00:53:46;;;;;;;;;;;;;;;;;;5069816;28;20542;-62
2022/10/30 00:56:11;;;;;;;;;;;;;;;;;;5075133;28;19916;-62
2022/10/30 00:58:37;;;;;;;;;;;;;;;;;;5076233;28;19923;-62
2022/10/30 01:01:02;;;;;;;;;;;;;;;;;;5075288;28;19913;-62
2022/10/30 01:03:27;;;;;;;;;;;;;;;;;;5071818;28;20010;-61
2022/10/30 01:05:52;;;;;;;;;;;;;;;;;;5077467;28;19958;-62
2022/10/30 01:08:17;;;;;;;;;;;;;;;;;;5067759;28;19920;-61
2022/10/30 01:10:42;;;;;;;;;;;;;;;;;;5074447;28;19913;-63
2022/10/30 01:13:07;;;;;;;;;;;;;;;;;;5072066;28;19920;-61
2022/10/30 01:15:33;;;;;;;;;;;;;;;;;;5069312;28;19956;-62
2022/10/30 01:17:58;;;;;;;;;;;;;;;;;;5074145;28;20284;-62
2022/10/30 01:20:23;;;;;;;;;;;;;;;;;;5074961;28;20377;-62
2022/10/30 01:22:48;;;;;;;;;;;;;;;;;;5073271;28;19962;-61
2022/10/30 01:25:13;;;;;;;;;;;;;;;;;;5066808;28;19916;-62
2022/10/30 01:27:38;;;;;;;;;;;;;;;;;;5072172;28;20269;-62
2022/10/30 01:30:03;;;;;;;;;;;;;;;;;;5080803;28;20053;-62
2022/10/30 01:32:29;;;;;;;;;;;;;;;;;;5084059;28;19966;-62
2022/10/30 01:34:54;;;;;;;;;;;;;;;;;;5080601;28;19970;-62
2022/10/30 01:37:19;;;;;;;;;;;;;;;;;;5076415;28;19919;-62
2022/10/30 01:39:44;;;;;;;;;;;;;;;;;;5073410;28;19913;-62
2022/10/30 01:42:09;;;;;;;;;;;;;;;;;;5073397;28;19912;-62
2022/10/30 01:44:35;;;;;;;;;;;;;;;;;;5074154;28;19912;-62
2022/10/30 01:47:00;;;;;;;;;;;;;;;;;;5079028;28;19986;-62
2022/10/30 01:49:25;;;;;;;;;;;;;;;;;;5073405;28;19912;-62
2022/10/30 01:51:50;;;;;;;;;;;;;;;;;;5071504;28;19940;-62
2022/10/30 01:54:15;;;;;;;;;;;;;;;;;;5073992;28;19913;-62
2022/10/30 01:56:40;;;;;;;;;;;;;;;;;;5072854;28;19919;-62
2022/10/30 01:59:05;;;;;;;;;;;;;;;;;;5072485;28;19962;-62
2022/10/30 02:01:32;;;;;;;;;;;;;;;;;;5073093;28;19908;-61
2022/10/30 02:03:57;;;;;;;;;;;;;;;;;;5072977;28;20025;-61
2022/10/30 02:06:22;;;;;;;;;;;;;;;;;;5077262;28;19912;-62
2022/10/30 02:08:47;;;;;;;;;;;;;;;;;;5106318;28;20391;-60
2022/10/30 02:11:12;;;;;;;;;;;;;;;;;;5075010;28;19911;-62
2022/10/30 02:13:37;;;;;;;;;;;;;;;;;;5062085;28;19924;-61
2022/10/30 02:16:02;;;;;;;;;;;;;;;;;;5065942;28;19992;-62
2022/10/30 02:18:28;;;;;;;;;;;;;;;;;;5100140;28;19916;-62
2022/10/30 02:20:54;;;;;;;;;;;;;;;;;;5062952;28;19913;-62
2022/10/30 02:23:21;;;;;;;;;;;;;;;;;;5071311;28;19919;-62
2022/10/30 02:25:46;;;;;;;;;;;;;;;;;;5085772;28;20011;-62
2022/10/30 02:28:11;;;;;;;;;;;;;;;;;;5072748;28;19964;-62
2022/10/30 02:30:37;;;;;;;;;;;;;;;;;;5073051;28;19950;-63
2022/10/30 02:33:02;;;;;;;;;;;;;;;;;;5081627;28;19912;-63
2022/10/30 02:35:27;;;;;;;;;;;;;;;;;;5092438;28;19999;-62
2022/10/30 02:37:52;;;;;;;;;;;;;;;;;;5068853;28;19920;-63
2022/10/30 02:40:17;;;;;;;;;;;;;;;;;;5074510;28;19920;-62
2022/10/30 02:42:43;;;;;;;;;;;;;;;;;;5082190;28;19908;-63
2022/10/30 02:45:08;;;;;;;;;;;;;;;;;;5079976;28;19965;-62
2022/10/30 02:47:33;;;;;;;;;;;;;;;;;;5062510;28;19913;-62
2022/10/30 02:49:58;;;;;;;;;;;;;;;;;;5070086;28;20257;-62
2022/10/30 02:52:23;;;;;;;;;;;;;;;;;;5067621;28;20368;-62
2022/10/30 02:54:48;;;;;;;;;;;;;;;;;;5072177;28;19917;-61
2022/10/30 02:57:13;;;;;;;;;;;;;;;;;;5067556;28;19991;-63
2022/10/30 02:59:38;;;;;;;;;;;;;;;;;;5054582;28;19912;-61
2022/10/30 03:02:04;;;;;;;;;;;;;;;;;;5069947;28;19912;-62
2022/10/30 03:04:29;;;;;;;;;;;;;;;;;;5067182;28;19921;-61
2022/10/30 03:06:54;;;;;;;;;;;;;;;;;;5066967;28;19919;-63
2022/10/30 03:09:19;;;;;;;;;;;;;;;;;;5072907;28;19909;-62
2022/10/30 03:11:44;;;;;;;;;;;;;;;;;;5069902;28;19913;-62
2022/10/30 03:14:10;;;;;;;;;;;;;;;;;;5072438;28;20291;-62
2022/10/30 03:16:35;;;;;;;;;;;;;;;;;;5072009;28;20256;-63
2022/10/30 03:19:00;;;;;;;;;;;;;;;;;;5072812;28;20300;-62
2022/10/30 03:21:25;;;;;;;;;;;;;;;;;;5070280;28;20445;-63
2022/10/30 03:23:50;;;;;;;;;;;;;;;;;;5066310;28;19956;-62
2022/10/30 03:26:15;;;;;;;;;;;;;;;;;;5072010;28;19927;-63
2022/10/30 03:28:40;;;;;;;;;;;;;;;;;;5074184;28;19912;-63
2022/10/30 03:31:05;;;;;;;;;;;;;;;;;;5072748;28;19947;-63
2022/10/30 03:33:31;;;;;;;;;;;;;;;;;;5071156;28;19916;-63
2022/10/30 03:35:56;;;;;;;;;;;;;;;;;;5072870;28;20384;-63
2022/10/30 03:38:21;;;;;;;;;;;;;;;;;;5085212;28;19913;-63
2022/10/30 03:40:46;;;;;;;;;;;;;;;;;;5051730;28;19912;-62
2022/10/30 03:43:11;;;;;;;;;;;;;;;;;;5057959;28;19917;-62
2022/10/30 03:45:36;;;;;;;;;;;;;;;;;;5111991;27;20264;-63
2022/10/30 03:48:01;;;;;;;;;;;;;;;;;;5065105;28;20427;-62
2022/10/30 03:50:27;;;;;;;;;;;;;;;;;;5071283;28;19916;-63
2022/10/30 03:52:52;;;;;;;;;;;;;;;;;;5070171;28;20333;-62
2022/10/30 03:55:17;;;;;;;;;;;;;;;;;;5068845;28;20383;-62
2022/10/30 03:57:42;;;;;;;;;;;;;;;;;;5072471;28;20257;-64
2022/10/30 04:00:07;;;;;;;;;;;;;;;;;;5071374;28;19920;-63
2022/10/30 04:02:32;;;;;;;;;;;;;;;;;;5072436;28;19962;-63
2022/10/30 04:04:57;;;;;;;;;;;;;;;;;;5076101;28;20010;-63
2022/10/30 04:07:23;;;;;;;;;;;;;;;;;;5075866;28;19909;-63
2022/10/30 04:09:48;;;;;;;;;;;;;;;;;;5074671;28;20456;-63
2022/10/30 04:12:13;;;;;;;;;;;;;;;;;;5075328;28;20402;-63
2022/10/30 04:14:38;;;;;;;;;;;;;;;;;;5071248;28;19954;-62
2022/10/30 04:17:05;;;;;;;;;;;;;;;;;;5072205;28;20278;-64
2022/10/30 04:19:30;;;;;;;;;;;;;;;;;;5061829;28;20392;-63
2022/10/30 04:21:55;;;;;;;;;;;;;;;;;;5066052;28;19921;-64
2022/10/30 04:24:20;;;;;;;;;;;;;;;;;;5069518;28;19923;-63
2022/10/30 04:26:45;;;;;;;;;;;;;;;;;;5069632;28;19960;-64
2022/10/30 04:29:10;;;;;;;;;;;;;;;;;;5070893;28;19919;-64
2022/10/30 04:31:36;;;;;;;;;;;;;;;;;;5089078;28;20377;-63
2022/10/30 04:34:01;;;;;;;;;;;;;;;;;;5086673;28;20384;-63
2022/10/30 04:36:31;;;;;;;;;;;;;;;;;;5074881;28;19924;-63
2022/10/30 04:38:56;;;;;;;;;;;;;;;;;;5072013;28;20570;-63
2022/10/30 04:41:22;;;;;;;;;;;;;;;;;;5062616;28;20020;-63
2022/10/30 04:43:47;;;;;;;;;;;;;;;;;;5075947;28;19939;-64
2022/10/30 04:46:12;;;;;;;;;;;;;;;;;;5089571;28;19927;-64
2022/10/30 04:48:38;;;;;;;;;;;;;;;;;;5068402;28;19913;-62
2022/10/30 04:51:03;;;;;;;;;;;;;;;;;;5059205;28;19913;-63
2022/10/30 04:53:28;;;;;;;;;;;;;;;;;;5079551;28;19920;-62
2022/10/30 04:55:53;;;;;;;;;;;;;;;;;;5064767;28;19912;-63
2022/10/30 04:58:18;;;;;;;;;;;;;;;;;;5076595;28;20007;-63
2022/10/30 05:00:43;;;;;;;;;;;;;;;;;;5071811;28;19913;-64
2022/10/30 05:03:08;;;;;;;;;;;;;;;;;;5074858;28;19912;-63
2022/10/30 05:05:34;;;;;;;;;;;;;;;;;;5071893;28;19963;-63
2022/10/30 05:07:59;;;;;;;;;;;;;;;;;;5074161;28;19912;-63
2022/10/30 05:10:24;;;;;;;;;;;;;;;;;;5074584;28;19952;-63
2022/10/30 05:12:49;;;;;;;;;;;;;;;;;;5075127;28;20323;-64
2022/10/30 05:15:14;;;;;;;;;;;;;;;;;;5073656;28;20353;-63
2022/10/30 05:17:39;;;;;;;;;;;;;;;;;;5074770;28;20277;-62
2022/10/30 05:20:04;;;;;;;;;;;;;;;;;;5074368;28;20328;-63
2022/10/30 05:22:30;;;;;;;;;;;;;;;;;;5071665;28;19913;-61
2022/10/30 05:24:55;;;;;;;;;;;;;;;;;;5073356;28;19917;-63
2022/10/30 05:27:20;;;;;;;;;;;;;;;;;;5083891;28;19920;-63
2022/10/30 05:29:45;;;;;;;;;;;;;;;;;;5078020;28;20364;-63
2022/10/30 05:32:10;;;;;;;;;;;;;;;;;;5082114;28;19913;-63
2022/10/30 05:34:35;;;;;;;;;;;;;;;;;;5074143;28;19913;-64
2022/10/30 05:37:00;;;;;;;;;;;;;;;;;;5074903;28;20284;-64
2022/10/30 05:39:25;;;;;;;;;;;;;;;;;;5071571;28;19920;-63
2022/10/30 05:41:51;;;;;;;;;;;;;;;;;;5074580;28;19912;-63
2022/10/30 05:44:16;;;;;;;;;;;;;;;;;;5064883;28;20007;-63
2022/10/30 05:46:41;;;;;;;;;;;;;;;;;;5073426;28;19909;-63
2022/10/30 05:49:06;;;;;;;;;;;;;;;;;;5105603;28;19908;-63
2022/10/30 05:51:31;;;;;;;;;;;;;;;;;;5070785;28;20143;-63
2022/10/30 05:53:56;;;;;;;;;;;;;;;;;;5075045;28;19916;-63
2022/10/30 05:56:22;;;;;;;;;;;;;;;;;;5064061;28;19947;-62
2022/10/30 05:58:47;;;;;;;;;;;;;;;;;;5073760;28;19920;-63
2022/10/30 06:01:12;;;;;;;;;;;;;;;;;;5080890;28;20360;-64
2022/10/30 06:03:37;;;;;;;;;;;;;;;;;;5078505;28;20404;-62
2022/10/30 06:06:02;;;;;;;;;;;;;;;;;;5056784;28;19909;-62
2022/10/30 06:08:27;;;;;;;;;;;;;;;;;;5072680;28;20406;-63
2022/10/30 06:10:52;;;;;;;;;;;;;;;;;;5085045;28;19952;-64
2022/10/30 06:13:17;;;;;;;;;;;;;;;;;;5069950;28;19920;-64
2022/10/30 06:15:43;;;;;;;;;;;;;;;;;;5073770;28;19908;-63
2022/10/30 06:18:08;;;;;;;;;;;;;;;;;;5072339;28;20005;-63
2022/10/30 06:20:33;;;;;;;;;;;;;;;;;;5074675;28;20274;-62
2022/10/30 06:22:58;;;;;;;;;;;;;;;;;;5070797;28;20007;-62
2022/10/30 06:25:23;;;;;;;;;;;;;;;;;;5072778;28;19970;-62
2022/10/30 06:27:48;;;;;;;;;;;;;;;;;;5072482;28;19921;-63
2022/10/30 06:30:13;;;;;;;;;;;;;;;;;;5106138;28;19932;-63
2022/10/30 06:32:39;;;;;;;;;;;;;;;;;;5072823;28;19912;-61
2022/10/30 06:35:04;;;;;;;;;;;;;;;;;;5081679;28;20384;-63
2022/10/30 06:37:29;;;;;;;;;;;;;;;;;;5072760;28;19916;-65
2022/10/30 06:39:54;;;;;;;;;;;;;;;;;;5071541;28;19913;-64
2022/10/30 06:42:19;;;;;;;;;;;;;;;;;;5073178;28;19938;-64
2022/10/30 06:44:44;;;;;;;;;;;;;;;;;;5088008;28;19923;-62
2022/10/30 06:47:09;;;;;;;;;;;;;;;;;;5103682;28;19958;-62
2022/10/30 06:49:34;;;;;;;;;;;;;;;;;;5059457;28;19919;-63
2022/10/30 06:52:00;;;;;;;;;;;;;;;;;;5067364;28;20046;-63
2022/10/30 06:54:25;;;;;;;;;;;;;;;;;;5071103;28;19913;-62
2022/10/30 06:56:50;;;;;;;;;;;;;;;;;;5072220;28;19915;-63
2022/10/30 06:59:15;;;;;;;;;;;;;;;;;;5064983;28;19912;-64
2022/10/30 07:01:40;;;;;;;;;;;;;;;;;;5072938;28;19912;-63
2022/10/30 07:04:06;;;;;;;;;;;;;;;;;;5074613;28;20019;-64
2022/10/30 07:06:31;;;;;;;;;;;;;;;;;;5089597;28;19916;-64
2022/10/30 07:08:56;;;;;;;;;;;;;;;;;;5073607;28;20443;-63
2022/10/30 07:11:21;;;;;;;;;;;;;;;;;;5056773;28;20003;-63
2022/10/30 07:13:46;;;;;;;;;;;;;;;;;;5072575;28;19917;-63
2022/10/30 07:16:11;;;;;;;;;;;;;;;;;;5069021;28;20266;-64
2022/10/30 07:18:36;;;;;;;;;;;;;;;;;;5070582;28;19954;-64
2022/10/30 07:21:01;;;;;;;;;;;;;;;;;;5071029;28;19962;-63
2022/10/30 07:23:27;;;;;;;;;;;;;;;;;;5112168;27;21666;-64
2022/10/30 07:25:52;;;;;;;;;;;;;;;;;;5074151;28;19931;-63
2022/10/30 07:28:17;;;;;;;;;;;;;;;;;;5075525;28;19916;-63
2022/10/30 07:30:42;;;;;;;;;;;;;;;;;;5073064;28;20298;-63
2022/10/30 07:33:07;;;;;;;;;;;;;;;;;;5104582;28;20011;-63
2022/10/30 07:35:32;;;;;;;;;;;;;;;;;;5071829;28;19923;-63
2022/10/30 07:37:57;;;;;;;;;;;;;;;;;;5071480;28;20307;-63
2022/10/30 07:40:23;;;;;;;;;;;;;;;;;;5064927;28;19912;-63
2022/10/30 07:42:48;;;;;;;;;;;;;;;;;;5056928;28;19913;-63
2022/10/30 07:45:13;;;;;;;;;;;;;;;;;;5056528;28;19928;-63
2022/10/30 07:47:38;;;;;;;;;;;;;;;;;;5068764;28;19950;-63
2022/10/30 07:50:03;;;;;;;;;;;;;;;;;;5069626;28;19912;-63
2022/10/30 07:52:28;;;;;;;;;;;;;;;;;;5070937;28;19909;-63
2022/10/30 07:54:53;;;;;;;;;;;;;;;;;;5070333;28;19999;-62
2022/10/30 07:57:19;;;;;;;;;;;;;;;;;;5075450;28;19913;-63
2022/10/30 07:59:44;;;;;;;;;;;;;;;;;;5070696;28;19912;-63
2022/10/30 08:02:09;;;;;;;;;;;;;;;;;;5072255;28;20055;-63
2022/10/30 08:04:34;;;;;;;;;;;;;;;;;;5062726;28;19956;-63
2022/10/30 08:06:59;;;;;;;;;;;;;;;;;;5062259;28;19913;-60
2022/10/30 08:09:24;;;;;;;;;;;;;;;;;;5070663;28;19962;-62
2022/10/30 08:11:49;;;;;;;;;;;;;;;;;;5068152;28;19958;-62
2022/10/30 08:14:14;;;;;;;;;;;;;;;;;;5072537;28;19912;-63
2022/10/30 08:16:40;;;;;;;;;;;;;;;;;;5067619;28;19967;-64
2022/10/30 08:19:05;;;;;;;;;;;;;;;;;;5071172;28;19912;-63
2022/10/30 08:21:30;;;;;;;;;;;;;;;;;;5071687;28;20420;-62
2022/10/30 08:23:55;;;;;;;;;;;;;;;;;;5071241;28;19927;-63
2022/10/30 08:26:20;;;;;;;;;;;;;;;;;;5068781;28;19921;-62
2022/10/30 08:28:45;;;;;;;;;;;;;;;;;;5097249;28;20015;-63
2022/10/30 08:31:10;;;;;;;;;;;;;;;;;;5069857;28;19909;-63
2022/10/30 08:33:35;;;;;;;;;;;;;;;;;;5075251;28;19919;-63
2022/10/30 08:36:01;;;;;;;;;;;;;;;;;;5068754;28;20002;-63
2022/10/30 08:38:26;;;;;;;;;;;;;;;;;;5065557;28;19948;-62
2022/10/30 08:40:51;;;;;;;;;;;;;;;;;;5071555;28;20388;-62
2022/10/30 08:43:16;;;;;;;;;;;;;;;;;;5055961;28;19948;-62
2022/10/30 08:45:41;;;;;;;;;;;;;;;;;;5071273;28;19920;-63
2022/10/30 08:48:07;;;;;;;;;;;;;;;;;;5074104;28;19912;-63
2022/10/30 08:50:34;;;;;;;;;;;;;;;;;;5074351;28;20372;-63
2022/10/30 08:52:59;;;;;;;;;;;;;;;;;;5071331;28;19920;-63
2022/10/30 08:55:24;;;;;;;;;;;;;;;;;;5074919;28;20369;-61
2022/10/30 08:57:49;;;;;;;;;;;;;;;;;;5072471;28;20376;-62
2022/10/30 09:00:15;;;;;;;;;;;;;;;;;;5074623;28;19909;-62
2022/10/30 09:02:40;;;;;;;;;;;;;;;;;;5074996;28;19964;-61
2022/10/30 09:05:05;;;;;;;;;;;;;;;;;;5074969;28;21005;-63
2022/10/30 09:07:30;;;;;;;;;;;;;;;;;;5073188;28;19913;-63
2022/10/30 09:09:55;;;;;;;;;;;;;;;;;;5075119;28;19974;-62
2022/10/30 09:12:20;;;;;;;;;;;;;;;;;;5075429;28;19927;-62
2022/10/30 09:14:45;;;;;;;;;;;;;;;;;;5074727;28;19928;-63
2022/10/30 09:17:10;;;;;;;;;;;;;;;;;;5075734;28;19974;-62
2022/10/30 09:19:36;;;;;;;;;;;;;;;;;;5070857;28;19935;-64
2022/10/30 09:22:01;;;;;;;;;;;;;;;;;;5069439;28;19916;-62
2022/10/30 09:24:27;;;;;;;;;;;;;;;;;;5068417;28;19942;-63
2022/10/30 09:26:52;;;;;;;;;;;;;;;;;;5072934;28;19921;-62
2022/10/30 09:29:17;;;;;;;;;;;;;;;;;;5066989;28;19912;-62
2022/10/30 09:31:42;;;;;;;;;;;;;;;;;;5068754;28;20257;-67
2022/10/30 09:34:07;;;;;;;;;;;;;;;;;;5076264;28;19916;-68
2022/10/30 09:36:32;;;;;;;;;;;;;;;;;;5072159;28;19916;-65
2022/10/30 09:38:58;;;;;;;;;;;;;;;;;;5069749;28;19948;-68
2022/10/30 09:41:23;;;;;;;;;;;;;;;;;;5072068;28;19913;-68
2022/10/30 09:43:49;;;;;;;;;;;;;;;;;;5069030;28;19916;-68
2022/10/30 09:46:14;;;;;;;;;;;;;;;;;;5098919;28;19919;-66
2022/10/30 09:48:39;;;;;;;;;;;;;;;;;;5067473;28;19916;-66
2022/10/30 09:51:04;;;;;;;;;;;;;;;;;;5066191;28;20037;-66
2022/10/30 09:53:30;;;;;;;;;;;;;;;;;;5066513;28;19920;-66
2022/10/30 09:55:55;;;;;;;;;;;;;;;;;;5066055;28;19917;-67
2022/10/30 09:58:20;;;;;;;;;;;;;;;;;;5068519;28;20343;-65
2022/10/30 10:00:45;;;;;;;;;;;;;;;;;;5096568;28;20338;-64
2022/10/30 10:03:10;;;;;;;;;;;;;;;;;;5069000;28;20288;-73
2022/10/30 10:05:35;;;;;;;;;;;;;;;;;;5069027;28;19917;-66
2022/10/30 10:08:00;;;;;;;;;;;;;;;;;;5098121;27;19957;-67
2022/10/30 10:10:25;;;;;;;;;;;;;;;;;;5066720;28;19913;-64
2022/10/30 10:12:51;;;;;;;;;;;;;;;;;;5068365;28;19912;-65
2022/10/30 10:15:16;;;;;;;;;;;;;;;;;;5066342;28;19920;-71
2022/10/30 10:17:41;;;;;;;;;;;;;;;;;;5066766;28;19959;-66
2022/10/30 10:20:06;;;;;;;;;;;;;;;;;;5066965;28;19939;-65
2022/10/30 10:22:31;;;;;;;;;;;;;;;;;;5063545;28;19944;-65
2022/10/30 10:24:56;;;;;;;;;;;;;;;;;;5067098;28;20308;-65
2022/10/30 10:27:21;;;;;;;;;;;;;;;;;;5066723;28;20300;-65
2022/10/30 10:29:46;;;;;;;;;;;;;;;;;;5069396;28;19935;-64
2022/10/30 10:32:12;;;;;;;;;;;;;;;;;;5067661;28;20031;-68
2022/10/30 10:34:37;;;;;;;;;;;;;;;;;;5065226;28;20418;-71
2022/10/30 10:37:02;;;;;;;;;;;;;;;;;;5066291;28;19916;-72
2022/10/30 10:39:27;;;;;;;;;;;;;;;;;;5066813;28;19912;-70
2022/10/30 10:41:52;;;;;;;;;;;;;;;;;;5066333;28;20391;-69
2022/10/30 10:44:17;;;;;;;;;;;;;;;;;;5067800;28;19931;-65
2022/10/30 10:46:42;;;;;;;;;;;;;;;;;;5067797;28;19924;-66
2022/10/30 10:49:08;;;;;;;;;;;;;;;;;;5065924;28;19944;-65
2022/10/30 10:51:33;;;;;;;;;;;;;;;;;;5061792;28;19983;-67
2022/10/30 10:53:58;;;;;;;;;;;;;;;;;;5065020;28;19912;-68
2022/10/30 10:56:23;;;;;;;;;;;;;;;;;;5066279;28;20007;-65
2022/10/30 10:58:48;;;;;;;;;;;;;;;;;;5065620;28;20435;-68
2022/10/30 11:01:14;;;;;;;;;;;;;;;;;;5067046;28;20376;-67
2022/10/30 11:03:39;;;;;;;;;;;;;;;;;;5096822;28;19942;-65
2022/10/30 11:06:04;;;;;;;;;;;;;;;;;;5066297;28;19923;-70
2022/10/30 11:08:29;;;;;;;;;;;;;;;;;;5064324;28;19912;-68
2022/10/30 11:10:54;;;;;;;;;;;;;;;;;;5098744;28;20027;-67
2022/10/30 11:13:19;;;;;;;;;;;;;;;;;;5067629;28;19970;-64
2022/10/30 11:15:45;;;;;;;;;;;;;;;;;;5065747;28;20361;-68
2022/10/30 11:18:10;;;;;;;;;;;;;;;;;;5096472;28;19916;-67
2022/10/30 11:20:35;;;;;;;;;;;;;;;;;;5090272;28;19913;-66
2022/10/30 11:23:00;;;;;;;;;;;;;;;;;;5071262;28;19918;-64
2022/10/30 11:25:25;;;;;;;;;;;;;;;;;;5066886;28;20264;-67
2022/10/30 11:27:50;;;;;;;;;;;;;;;;;;5068361;28;19913;-66
2022/10/30 11:30:15;;;;;;;;;;;;;;;;;;5072898;28;19948;-66
2022/10/30 11:32:41;;;;;;;;;;;;;;;;;;5081457;28;19917;-65
2022/10/30 11:35:06;;;;;;;;;;;;;;;;;;5068308;28;19920;-67
2022/10/30 11:37:31;;;;;;;;;;;;;;;;;;5066924;28;19948;-66
2022/10/30 11:39:56;;;;;;;;;;;;;;;;;;5099531;28;20233;-66
2022/10/30 11:42:21;;;;;;;;;;;;;;;;;;5077980;28;19916;-66
2022/10/30 11:44:46;;;;;;;;;;;;;;;;;;5066922;28;19912;-66
2022/10/30 11:47:11;;;;;;;;;;;;;;;;;;5075024;28;19919;-66
2022/10/30 11:49:36;;;;;;;;;;;;;;;;;;5063979;28;19916;-66
2022/10/30 11:52:02;;;;;;;;;;;;;;;;;;5095331;28;20384;-66
2022/10/30 11:54:27;;;;;;;;;;;;;;;;;;5071386;28;20376;-67
2022/10/30 11:56:53;;;;;;;;;;;;;;;;;;5060304;28;19917;-67
2022/10/30 11:59:18;;;;;;;;;;;;;;;;;;5065144;28;19986;-67
2022/10/30 12:01:43;;;;;;;;;;;;;;;;;;5099350;28;19919;-67
2022/10/30 12:04:08;;;;;;;;;;;;;;;;;;5072517;28;19924;-66
2022/10/30 12:06:33;;;;;;;;;;;;;;;;;;5066174;28;19927;-67
2022/10/30 12:08:59;;;;;;;;;;;;;;;;;;5062873;28;19969;-64
2022/10/30 12:11:24;;;;;;;;;;;;;;;;;;5064945;28;20296;-64
2022/10/30 12:13:49;;;;;;;;;;;;;;;;;;5064878;28;20403;-67
2022/10/30 12:16:14;;;;;;;;;;;;;;;;;;5064306;28;19913;-68
2022/10/30 12:18:39;;;;;;;;;;;;;;;;;;5056485;28;19913;-67
2022/10/30 12:21:04;;;;;;;;;;;;;;;;;;5057790;28;19995;-69
2022/10/30 12:23:30;;;;;;;;;;;;;;;;;;5079117;28;19921;-66
2022/10/30 12:25:55;;;;;;;;;;;;;;;;;;5065291;28;19967;-67
2022/10/30 12:28:20;;;;;;;;;;;;;;;;;;5100452;28;19912;-67
2022/10/30 12:30:45;;;;;;;;;;;;;;;;;;5064766;28;19924;-68
2022/10/30 12:33:10;;;;;;;;;;;;;;;;;;5076644;28;19920;-68
2022/10/30 12:35:35;;;;;;;;;;;;;;;;;;5102213;28;19935;-68
2022/10/30 12:38:01;;;;;;;;;;;;;;;;;;5068335;28;19913;-68
2022/10/30 12:40:26;;;;;;;;;;;;;;;;;;5069465;28;19975;-68
2022/10/30 12:42:51;;;;;;;;;;;;;;;;;;5068558;28;19975;-68
2022/10/30 12:45:16;;;;;;;;;;;;;;;;;;5067749;28;20361;-68
2022/10/30 12:47:41;;;;;;;;;;;;;;;;;;5069700;28;19923;-68
2022/10/30 12:50:06;;;;;;;;;;;;;;;;;;5071179;28;19921;-67
2022/10/30 12:52:31;;;;;;;;;;;;;;;;;;5069385;28;19955;-67
2022/10/30 12:54:57;;;;;;;;;;;;;;;;;;5070263;28;19913;-70
2022/10/30 12:57:22;;;;;;;;;;;;;;;;;;5071535;28;19917;-70
2022/10/30 12:59:47;;;;;;;;;;;;;;;;;;5075526;28;20011;-69
2022/10/30 13:02:12;;;;;;;;;;;;;;;;;;5072560;28;19916;-68
2022/10/30 13:04:37;;;;;;;;;;;;;;;;;;5073910;28;19923;-69
2022/10/30 13:07:02;;;;;;;;;;;;;;;;;;5079601;28;19919;-70
2022/10/30 13:09:27;;;;;;;;;;;;;;;;;;5084310;28;19951;-70
2022/10/30 13:11:53;;;;;;;;;;;;;;;;;;5072852;28;19977;-69
2022/10/30 13:14:18;;;;;;;;;;;;;;;;;;5058487;28;19924;-68
2022/10/30 13:16:43;;;;;;;;;;;;;;;;;;5050974;28;19927;-68
2022/10/30 13:19:08;;;;;;;;;;;;;;;;;;5051872;28;19943;-67
2022/10/30 13:21:33;;;;;;;;;;;;;;;;;;5090310;28;20050;-70
2022/10/30 13:23:58;;;;;;;;;;;;;;;;;;5091923;28;19923;-69
2022/10/30 13:26:23;;;;;;;;;;;;;;;;;;5068737;28;19929;-69
2022/10/30 13:28:49;;;;;;;;;;;;;;;;;;5060538;28;19988;-69
2022/10/30 13:31:14;;;;;;;;;;;;;;;;;;5068695;28;19973;-69
2022/10/30 13:33:40;;;;;;;;;;;;;;;;;;5070981;28;20285;-69
2022/10/30 13:36:05;;;;;;;;;;;;;;;;;;5097638;28;20285;-69
2022/10/30 13:38:30;;;;;;;;;;;;;;;;;;5069350;28;19923;-69
2022/10/30 13:40:55;;;;;;;;;;;;;;;;;;5070570;28;19920;-69
2022/10/30 13:43:20;;;;;;;;;;;;;;;;;;5073145;28;20392;-68
2022/10/30 13:45:45;;;;;;;;;;;;;;;;;;5061432;28;19923;-68
2022/10/30 13:48:10;;;;;;;;;;;;;;;;;;5071211;28;20269;-68
2022/10/30 13:50:36;;;;;;;;;;;;;;;;;;5095433;28;20280;-68
2022/10/30 13:53:01;;;;;;;;;;;;;;;;;;5070585;28;19970;-68
2022/10/30 13:55:26;;;;;;;;;;;;;;;;;;5059580;28;19912;-68
2022/10/30 13:57:51;;;;;;;;;;;;;;;;;;5062289;28;19913;-68
2022/10/30 14:00:16;;;;;;;;;;;;;;;;;;5076042;28;19913;-69
2022/10/30 14:02:41;;;;;;;;;;;;;;;;;;5075288;28;20383;-68
2022/10/30 14:05:06;;;;;;;;;;;;;;;;;;5065039;28;19921;-69
2022/10/30 14:07:32;;;;;;;;;;;;;;;;;;5063326;28;19916;-68
2022/10/30 14:09:57;;;;;;;;;;;;;;;;;;5065110;28;19920;-69
2022/10/30 14:12:22;;;;;;;;;;;;;;;;;;5070257;28;19916;-68
2022/10/30 14:14:47;;;;;;;;;;;;;;;;;;5068231;28;19978;-66
2022/10/30 14:17:12;;;;;;;;;;;;;;;;;;5097967;28;19923;-70
2022/10/30 14:19:37;;;;;;;;;;;;;;;;;;5065819;28;20006;-67
2022/10/30 14:22:02;;;;;;;;;;;;;;;;;;5089626;28;19920;-70
2022/10/30 14:24:28;;;;;;;;;;;;;;;;;;5066394;28;19921;-70
2022/10/30 14:26:53;;;;;;;;;;;;;;;;;;5064415;28;20057;-68
2022/10/30 14:29:18;;;;;;;;;;;;;;;;;;5062672;28;20367;-71
2022/10/30 14:31:43;;;;;;;;;;;;;;;;;;5063768;28;19920;-69
2022/10/30 14:34:08;;;;;;;;;;;;;;;;;;5061175;28;19962;-72
2022/10/30 14:36:33;;;;;;;;;;;;;;;;;;5063332;28;19919;-71
2022/10/30 14:38:59;;;;;;;;;;;;;;;;;;5063200;28;19920;-74
2022/10/30 14:41:24;;;;;;;;;;;;;;;;;;5061384;28;19921;-72
2022/10/30 14:43:49;;;;;;;;;;;;;;;;;;5065826;28;19956;-69
2022/10/30 14:46:14;;;;;;;;;;;;;;;;;;5058507;28;19920;-72
2022/10/30 14:48:39;;;;;;;;;;;;;;;;;;5096452;28;19916;-71
2022/10/30 14:51:04;;;;;;;;;;;;;;;;;;5072549;28;19917;-71
2022/10/30 14:53:30;;;;;;;;;;;;;;;;;;5064941;28;20046;-71
2022/10/30 14:55:55;;;;;;;;;;;;;;;;;;5065664;28;19914;-71
2022/10/30 14:58:20;;;;;;;;;;;;;;;;;;5102593;28;20288;-70
2022/10/30 15:00:45;;;;;;;;;;;;;;;;;;5065192;28;20384;-71
2022/10/30 15:03:10;;;;;;;;;;;;;;;;;;5068174;28;19912;-71
2022/10/30 15:05:35;;;;;;;;;;;;;;;;;;5061752;28;20003;-71
2022/10/30 15:08:00;;;;;;;;;;;;;;;;;;5072764;28;19913;-72
2022/10/30 15:10:26;;;;;;;;;;;;;;;;;;5069681;28;19908;-72
2022/10/30 15:12:51;;;;;;;;;;;;;;;;;;5093498;28;19920;-73
2022/10/30 15:15:17;;;;;;;;;;;;;;;;;;5097119;28;19932;-71
2022/10/30 15:17:42;;;;;;;;;;;;;;;;;;5061937;28;19913;-71
2022/10/30 15:20:07;;;;;;;;;;;;;;;;;;5059563;28;19916;-72
2022/10/30 15:22:33;;;;;;;;;;;;;;;;;;5066113;28;19917;-71
2022/10/30 15:24:58;;;;;;;;;;;;;;;;;;5067598;28;20352;-72
2022/10/30 15:27:23;;;;;;;;;;;;;;;;;;5067633;28;19920;-72
2022/10/30 15:29:48;;;;;;;;;;;;;;;;;;5063992;28;19928;-74
2022/10/30 15:32:14;;;;;;;;;;;;;;;;;;5098847;28;19921;-71
2022/10/30 15:34:39;;;;;;;;;;;;;;;;;;5068047;28;20011;-72
2022/10/30 15:37:04;;;;;;;;;;;;;;;;;;5066201;28;20356;-71
2022/10/30 15:39:29;;;;;;;;;;;;;;;;;;5070811;28;19918;-73
2022/10/30 15:41:54;;;;;;;;;;;;;;;;;;5057636;28;20373;-73
2022/10/30 15:44:19;;;;;;;;;;;;;;;;;;5063710;28;19948;-71
2022/10/30 15:46:44;;;;;;;;;;;;;;;;;;5102578;28;19912;-71
2022/10/30 15:49:10;;;;;;;;;;;;;;;;;;5063560;28;19912;-72
2022/10/30 15:51:35;;;;;;;;;;;;;;;;;;5065974;28;20372;-71
2022/10/30 15:54:00;;;;;;;;;;;;;;;;;;5068955;28;20407;-71
2022/10/30 15:56:25;;;;;;;;;;;;;;;;;;5070949;28;19912;-72
2022/10/30 15:58:50;;;;;;;;;;;;;;;;;;5077361;28;19908;-72
2022/10/30 16:01:15;;;;;;;;;;;;;;;;;;5072622;28;19923;-72
2022/10/30 16:03:40;;;;;;;;;;;;;;;;;;5069760;28;20003;-71
2022/10/30 16:06:06;;;;;;;;;;;;;;;;;;5063746;28;19924;-73
2022/10/30 16:08:31;;;;;;;;;;;;;;;;;;5055189;28;19912;-71
2022/10/30 16:10:56;;;;;;;;;;;;;;;;;;5066147;28;20380;-71
2022/10/30 16:13:21;;;;;;;;;;;;;;;;;;5079230;28;19958;-71
2022/10/30 16:15:46;;;;;;;;;;;;;;;;;;5069982;28;19912;-71
2022/10/30 16:18:11;;;;;;;;;;;;;;;;;;5067930;28;20007;-72
2022/10/30 16:20:37;;;;;;;;;;;;;;;;;;5071020;28;20368;-70
2022/10/30 16:23:02;;;;;;;;;;;;;;;;;;5053325;28;20012;-72
2022/10/30 16:25:27;;;;;;;;;;;;;;;;;;5066228;28;19935;-71
2022/10/30 16:27:52;;;;;;;;;;;;;;;;;;5061591;28;19924;-72
2022/10/30 16:30:17;;;;;;;;;;;;;;;;;;5089007;28;19958;-73